Time;durP1;ratioP1;P1;durP2;ratioP2;P2;SDS_P1;SDS_P2;PMS_P1;PMS_P2;Temp;Humidity;BMP_temperature;BMP_pressure;BME280_temperature;BME280_humidity;BME280_pressure;Samples;Min_cycle;Max_cycle;Signal;HPM_P1;HPM_P2
2021/05/12 00:00:36;;;;;;;;;;;;;;;20.50;57.71;101162.00;5131916;27;1271;-67
2021/05/12 00:03:21;;;;;;;;;;;;;;;20.47;57.28;101162.19;5131617;27;1914;-67
2021/05/12 00:06:06;;;;;;;;;;;;;;;20.45;58.34;101156.97;5131772;27;1366;-67
2021/05/12 00:08:52;;;;;;;;;;;;;;;20.44;58.28;101162.34;5131741;27;1039;-67
2021/05/12 00:11:37;;;;;;;;;;;;;;;20.46;58.44;101158.66;5132048;27;1297;-67
2021/05/12 00:14:22;;;;;;;;;;;;;;;20.45;58.26;101153.47;5131531;27;1080;-68
2021/05/12 00:17:10;;;;;;;;;;;;;;;20.41;58.82;101152.81;5131568;27;1295;-67
2021/05/12 00:19:58;;;;;;;;;;;;;;;20.43;57.82;101144.75;5131499;27;1325;-67
2021/05/12 00:25:28;;;;;;;;;;;;;;;20.44;58.22;101149.13;5131496;27;1239;-67
2021/05/12 00:28:14;;;;;;;;;;;;;;;20.43;58.00;101153.56;5115107;27;659;-69
2021/05/12 00:30:59;;;;;;;;;;;;;;;20.42;58.04;101149.22;5131148;27;1261;-67
2021/05/12 00:33:44;;;;;;;;;;;;;;;20.36;57.86;101148.72;5131307;27;1042;-67
2021/05/12 00:36:29;;;;;;;;;;;;;;;20.38;57.91;101149.47;5131102;27;1230;-67
2021/05/12 00:39:15;;;;;;;;;;;;;;;20.36;58.26;101148.72;5131221;27;1138;-67
2021/05/12 00:42:00;;;;;;;;;;;;;;;20.38;57.61;101147.69;5131100;27;1295;-66
2021/05/12 00:44:45;;;;;;;;;;;;;;;20.36;58.02;101146.06;5130865;27;1909;-67
2021/05/12 00:47:31;;;;;;;;;;;;;;;20.35;57.33;101152.28;5130560;27;651;-68
2021/05/12 00:50:18;;;;;;;;;;;;;;;20.31;57.56;101150.75;5131027;27;1491;-68
2021/05/12 00:53:04;;;;;;;;;;;;;;;20.33;58.00;101155.03;5115400;27;647;-67
2021/05/12 00:55:49;;;;;;;;;;;;;;;20.34;57.72;101153.22;5130533;27;1290;-67
2021/05/12 00:58:35;;;;;;;;;;;;;;;20.30;57.36;101154.34;5130673;27;702;-67
2021/05/12 01:01:20;;;;;;;;;;;;;;;20.28;57.17;101143.00;5131138;27;1358;-66
2021/05/12 01:04:07;;;;;;;;;;;;;;;20.29;57.57;101134.13;5130891;27;1922;-67
2021/05/12 01:06:53;;;;;;;;;;;;;;;20.28;57.69;101135.06;5130723;27;1315;-67
2021/05/12 01:09:39;;;;;;;;;;;;;;;20.31;57.15;101125.16;5130983;27;944;-67
2021/05/12 01:12:25;;;;;;;;;;;;;;;20.28;57.22;101124.47;5114959;27;663;-67
2021/05/12 01:15:13;;;;;;;;;;;;;;;20.28;56.89;101116.53;5130873;27;1330;-67
2021/05/12 01:18:07;;;;;;;;;;;;;;;20.27;57.43;101117.50;5130390;27;639;-67
2021/05/12 01:20:52;;;;;;;;;;;;;;;20.27;57.59;101118.34;5130830;27;1223;-67
2021/05/12 01:23:40;;;;;;;;;;;;;;;20.28;57.92;101112.09;5114511;27;1972;-67
2021/05/12 01:26:26;;;;;;;;;;;;;;;20.26;56.98;101103.41;5130696;27;1240;-67
2021/05/12 01:29:11;;;;;;;;;;;;;;;20.23;57.10;101100.91;5129272;27;1033;-67
2021/05/12 01:31:56;;;;;;;;;;;;;;;20.28;57.28;101104.16;5129926;27;1283;-67
2021/05/12 01:34:41;;;;;;;;;;;;;;;20.28;57.18;101100.66;5114677;27;1040;-67
2021/05/12 01:37:27;;;;;;;;;;;;;;;20.24;56.97;101093.84;5129869;27;651;-67
2021/05/12 01:40:12;;;;;;;;;;;;;;;20.20;57.43;101098.44;5130323;27;1255;-66
2021/05/12 01:42:57;;;;;;;;;;;;;;;20.20;56.90;101090.50;5130078;27;631;-67
2021/05/12 01:45:43;;;;;;;;;;;;;;;20.20;56.70;101090.50;5130140;27;1404;-67
2021/05/12 01:48:29;;;;;;;;;;;;;;;20.19;56.63;101084.34;5130144;27;1495;-67
2021/05/12 01:51:15;;;;;;;;;;;;;;;20.25;57.54;101077.00;5129759;27;1220;-67
2021/05/12 01:54:00;;;;;;;;;;;;;;;20.22;56.53;101078.03;5129897;27;944;-65
2021/05/12 01:56:46;;;;;;;;;;;;;;;20.19;57.18;101072.91;5129904;27;1254;-67
2021/05/12 01:59:31;;;;;;;;;;;;;;;20.17;56.43;101072.16;5129662;27;1057;-67
2021/05/12 02:02:17;;;;;;;;;;;;;;;20.15;56.32;101064.31;5114048;28;707;-67
2021/05/12 02:05:02;;;;;;;;;;;;;;;20.16;56.01;101068.66;5129667;28;1902;-67
2021/05/12 02:07:50;;;;;;;;;;;;;;;20.17;56.45;101075.66;5132084;27;616;-67
2021/05/12 02:10:36;;;;;;;;;;;;;;;20.13;56.37;101074.13;5133934;27;1263;-67
2021/05/12 02:13:24;;;;;;;;;;;;;;;20.14;56.60;101070.56;5133360;27;701;-66
2021/05/12 02:16:09;;;;;;;;;;;;;;;20.16;56.56;101057.22;5133608;27;1275;-66
2021/05/12 02:18:55;;;;;;;;;;;;;;;20.15;56.83;101053.72;5133728;27;1063;-66
2021/05/12 02:21:40;;;;;;;;;;;;;;;20.17;57.02;101046.56;5133584;27;1334;-67
2021/05/12 02:24:25;;;;;;;;;;;;;;;20.16;57.58;101042.22;5134052;27;1966;-66
2021/05/12 02:27:10;;;;;;;;;;;;;;;20.15;57.04;101043.16;5133426;27;1284;-68
2021/05/12 02:30:00;;;;;;;;;;;;;;;20.15;57.19;101039.69;5133116;27;1339;-68
2021/05/12 02:32:46;;;;;;;;;;;;;;;20.14;56.50;101033.53;5134091;27;607;-68
2021/05/12 02:35:32;;;;;;;;;;;;;;;20.12;57.07;101030.09;5133675;27;1231;-68
2021/05/12 02:38:18;;;;;;;;;;;;;;;20.13;56.53;101025.66;5133413;27;669;-68
2021/05/12 02:41:03;;;;;;;;;;;;;;;20.11;56.95;101028.41;5133746;27;1219;-67
2021/05/12 02:43:48;;;;;;;;;;;;;;;20.12;56.86;101024.81;5133419;27;1910;-67
2021/05/12 02:46:34;;;;;;;;;;;;;;;20.13;56.87;101025.66;5133733;27;1279;-68
2021/05/12 02:49:19;;;;;;;;;;;;;;;20.09;56.53;101025.00;5117571;27;1328;-66
2021/05/12 02:52:05;;;;;;;;;;;;;;;20.10;56.78;101023.19;5133029;27;1295;-68
2021/05/12 02:54:50;;;;;;;;;;;;;;;20.11;57.00;101017.84;5133422;27;1253;-67
2021/05/12 02:57:36;;;;;;;;;;;;;;;20.10;56.81;101012.63;5133180;27;631;-67
2021/05/12 03:00:23;;;;;;;;;;;;;;;20.11;56.65;100999.31;5133216;27;1195;-67
2021/05/12 03:03:09;;;;;;;;;;;;;;;20.11;56.85;101001.13;5133172;27;678;-68
2021/05/12 03:05:54;;;;;;;;;;;;;;;20.07;56.54;101000.44;5133321;27;1259;-67
2021/05/12 03:08:39;;;;;;;;;;;;;;;20.11;56.54;100996.69;5133087;27;626;-68
2021/05/12 03:11:25;;;;;;;;;;;;;;;20.11;57.16;100988.75;5133127;27;1374;-67
2021/05/12 03:14:10;;;;;;;;;;;;;;;20.11;56.65;100980.81;5132410;27;1080;-67
2021/05/12 03:16:56;;;;;;;;;;;;;;;20.09;56.98;100977.38;5117158;27;1353;-68
2021/05/12 03:19:41;;;;;;;;;;;;;;;20.09;56.90;100977.38;5131815;27;980;-67
2021/05/12 03:22:27;;;;;;;;;;;;;;;20.08;56.47;100973.06;5132581;27;698;-67
2021/05/12 03:25:14;;;;;;;;;;;;;;;20.09;56.70;100973.91;5132717;27;1906;-66
2021/05/12 03:27:59;;;;;;;;;;;;;;;20.06;56.56;100967.00;5132431;27;800;-67
2021/05/12 03:30:45;;;;;;;;;;;;;;;20.09;56.28;100966.00;5117005;27;1236;-67
2021/05/12 03:33:30;;;;;;;;;;;;;;;20.10;56.70;100968.53;5116818;27;741;-67
2021/05/12 03:36:16;;;;;;;;;;;;;;;20.09;57.07;100961.53;5132269;27;1275;-67
2021/05/12 03:39:03;;;;;;;;;;;;;;;20.11;56.93;100959.66;5132204;27;950;-67
2021/05/12 03:41:48;;;;;;;;;;;;;;;20.15;56.93;100950.56;5132093;27;1279;-67
2021/05/12 03:44:33;;;;;;;;;;;;;;;20.10;57.07;100955.31;5116646;27;1972;-66
2021/05/12 03:47:18;;;;;;;;;;;;;;;20.10;56.86;100957.94;5131911;27;682;-68
2021/05/12 03:50:05;;;;;;;;;;;;;;;20.11;56.43;100951.72;5132039;27;2127;-68
2021/05/12 03:52:51;;;;;;;;;;;;;;;20.09;56.57;100953.59;5131861;27;623;-68
2021/05/12 03:55:39;;;;;;;;;;;;;;;20.08;56.91;100954.56;5131815;27;1338;-68
2021/05/12 03:58:25;;;;;;;;;;;;;;;20.08;56.60;100943.97;5132104;27;615;-67
2021/05/12 04:01:10;;;;;;;;;;;;;;;20.11;56.91;100938.50;5131643;27;1251;-67
2021/05/12 04:03:55;;;;;;;;;;;;;;;20.08;56.31;100933.41;5131735;27;1874;-67
2021/05/12 04:06:43;;;;;;;;;;;;;;;20.07;56.33;100926.41;5116166;27;1295;-67
2021/05/12 04:09:29;;;;;;;;;;;;;;;20.07;56.55;100915.81;5131810;27;1039;-68
2021/05/12 04:12:14;;;;;;;;;;;;;;;20.05;56.97;100923.00;5131854;27;643;-67
2021/05/12 04:15:00;;;;;;;;;;;;;;;20.05;56.72;100932.72;5131821;27;1267;-68
2021/05/12 04:17:45;;;;;;;;;;;;;;;20.08;57.39;100925.47;5131939;27;1533;-68
2021/05/12 04:20:30;;;;;;;;;;;;;;;20.06;56.51;100931.78;5135699;27;1330;-68
2021/05/12 04:23:16;;;;;;;;;;;;;;;20.09;57.54;100927.13;5152000;27;607;-66
2021/05/12 04:26:01;;;;;;;;;;;;;;;20.00;56.79;100925.03;5144367;27;1980;-66
2021/05/12 04:28:46;;;;;;;;;;;;;;;20.05;56.60;100916.84;5131243;27;1063;-67
2021/05/12 04:31:33;;;;;;;;;;;;;;;20.04;56.80;100921.28;5130277;27;1278;-67
2021/05/12 04:34:18;;;;;;;;;;;;;;;20.00;56.32;100908.34;5146803;27;1120;-67
2021/05/12 04:37:04;;;;;;;;;;;;;;;20.00;56.53;100914.47;5144367;27;1287;-66
2021/05/12 04:39:49;;;;;;;;;;;;;;;20.02;56.64;100907.31;5131001;27;1256;-67
2021/05/12 04:42:34;;;;;;;;;;;;;;;20.01;56.46;100916.19;5115558;27;736;-66
2021/05/12 04:45:19;;;;;;;;;;;;;;;20.02;56.69;100917.03;5131134;27;1909;-66
2021/05/12 04:48:05;;;;;;;;;;;;;;;20.07;57.38;100922.88;5115624;27;1457;-67
2021/05/12 04:50:50;;;;;;;;;;;;;;;20.06;57.28;100924.69;5144307;27;1306;-66
2021/05/12 04:53:36;;;;;;;;;;;;;;;20.04;56.23;100921.28;5150649;27;639;-66
2021/05/12 04:56:21;;;;;;;;;;;;;;;20.03;56.45;100922.22;5146480;27;1267;-65
2021/05/12 04:59:06;;;;;;;;;;;;;;;20.03;57.10;100916.94;5130068;28;1022;-65
2021/05/12 05:01:52;;;;;;;;;;;;;;;20.14;56.93;100906.59;5132607;27;1549;-65
2021/05/12 05:04:40;;;;;;;;;;;;;;;20.21;57.98;100900.91;5134345;27;1909;-65
2021/05/12 05:07:25;;;;;;;;;;;;;;;20.12;56.53;100913.72;5129822;28;623;-67
2021/05/12 05:10:11;;;;;;;;;;;;;;;20.14;56.06;100896.00;5114113;28;1192;-66
2021/05/12 05:12:56;;;;;;;;;;;;;;;20.15;56.30;100897.69;5129580;28;725;-68
2021/05/12 05:15:41;;;;;;;;;;;;;;;20.19;56.91;100896.56;5129935;28;1246;-67
2021/05/12 05:18:27;;;;;;;;;;;;;;;20.18;56.27;100897.50;5129490;28;643;-69
2021/05/12 05:21:14;;;;;;;;;;;;;;;20.19;56.58;100904.50;5129138;28;1370;-64
2021/05/12 05:24:00;;;;;;;;;;;;;;;20.18;56.54;100901.97;5128238;28;1901;-64
2021/05/12 05:26:45;;;;;;;;;;;;;;;20.19;56.72;100901.84;5128167;28;1295;-64
2021/05/12 05:29:30;;;;;;;;;;;;;;;20.16;56.64;100898.53;5128647;28;1138;-66
2021/05/12 05:32:16;;;;;;;;;;;;;;;20.15;56.31;100902.16;5128453;28;698;-64
2021/05/12 05:35:01;;;;;;;;;;;;;;;20.17;56.58;100901.09;5128659;28;1314;-62
2021/05/12 05:37:47;;;;;;;;;;;;;;;20.15;55.98;100902.97;5128163;28;706;-67
2021/05/12 05:40:32;;;;;;;;;;;;;;;20.17;55.86;100901.09;5127954;28;1267;-68
2021/05/12 05:43:18;;;;;;;;;;;;;;;20.17;55.91;100906.41;5128289;27;627;-68
2021/05/12 05:46:03;;;;;;;;;;;;;;;20.16;55.89;100904.69;5128329;28;1906;-66
2021/05/12 05:48:48;;;;;;;;;;;;;;;20.30;57.48;100906.53;5101489;27;749414;-67
2021/05/12 05:51:33;;;;;;;;;;;;;;;20.24;56.53;100901.59;5128633;27;1346;-68
2021/05/12 05:54:20;;;;;;;;;;;;;;;20.29;56.08;100911.91;5129127;27;1144;-67
2021/05/12 05:57:06;;;;;;;;;;;;;;;20.21;56.04;100911.50;5129138;27;1289;-68
2021/05/12 05:59:51;;;;;;;;;;;;;;;20.21;56.15;100927.38;5129026;27;1231;-67
2021/05/12 06:02:37;;;;;;;;;;;;;;;20.39;58.24;100918.34;5131571;27;1567;-65
2021/05/12 06:05:23;;;;;;;;;;;;;;;20.24;55.49;100912.16;5150452;27;1913;-67
2021/05/12 06:08:08;;;;;;;;;;;;;;;20.25;55.96;100905.06;5150035;27;647;-68
2021/05/12 06:10:53;;;;;;;;;;;;;;;20.22;55.94;100894.66;5150630;27;1298;-68
2021/05/12 06:13:39;;;;;;;;;;;;;;;20.22;56.28;100889.38;5146936;27;666;-67
2021/05/12 06:16:24;;;;;;;;;;;;;;;20.26;55.89;100888.28;5129231;28;1366;-69
2021/05/12 06:19:09;;;;;;;;;;;;;;;20.24;55.64;100893.66;5129077;28;1150;-71
2021/05/12 06:21:55;;;;;;;;;;;;;;;20.30;55.79;100890.66;5129018;28;1335;-71
2021/05/12 06:24:42;;;;;;;;;;;;;;;20.30;55.83;100887.16;5112892;28;1978;-69
2021/05/12 06:27:27;;;;;;;;;;;;;;;20.29;56.18;100880.16;5128376;28;730;-67
2021/05/12 06:30:12;;;;;;;;;;;;;;;20.33;56.31;100881.69;5128758;28;1295;-68
2021/05/12 06:32:58;;;;;;;;;;;;;;;20.32;56.44;100872.03;5128114;28;676;-68
2021/05/12 06:35:43;;;;;;;;;;;;;;;20.40;56.71;100869.75;5128515;28;1274;-67
2021/05/12 06:38:28;;;;;;;;;;;;;;;20.49;57.20;100864.75;5133358;27;1416;-70
2021/05/12 06:41:14;;;;;;;;;;;;;;;20.47;57.53;100871.09;5123254;27;1414;-68
2021/05/12 06:43:59;;;;;;;;;;;;;;;20.54;57.63;100867.13;5132533;27;971;-65
2021/05/12 06:46:45;;;;;;;;;;;;;;;20.51;57.75;100869.97;5128390;28;1346;-67
2021/05/12 06:49:30;;;;;;;;;;;;;;;20.52;58.67;100864.56;5128252;28;1502;-68
2021/05/12 06:52:16;;;;;;;;;;;;;;;20.48;56.70;100873.66;5112628;28;703;-68
2021/05/12 06:55:01;;;;;;;;;;;;;;;20.51;57.97;100875.25;5130459;27;1322;-67
2021/05/12 06:57:47;;;;;;;;;;;;;;;20.51;57.58;100869.97;5132392;27;667;-68
2021/05/12 07:00:32;;;;;;;;;;;;;;;20.50;56.01;100865.59;5139620;27;1355;-67
2021/05/12 07:03:19;;;;;;;;;;;;;;;20.49;56.46;100872.69;5135248;27;699;-67
2021/05/12 07:06:04;;;;;;;;;;;;;;;20.52;55.89;100875.16;5132916;27;1938;-66
2021/05/12 07:08:50;;;;;;;;;;;;;;;20.51;55.54;100884.06;5132825;27;985;-69
2021/05/12 07:11:35;;;;;;;;;;;;;;;20.47;55.36;100871.09;5131989;27;1845;-68
2021/05/12 07:14:21;;;;;;;;;;;;;;;20.42;55.68;100874.03;5139128;27;1806;-70
2021/05/12 07:17:06;;;;;;;;;;;;;;;20.49;55.83;100879.78;5123046;27;1766;-70
2021/05/12 07:19:52;;;;;;;;;;;;;;;20.61;56.67;100874.56;5140198;27;1612;-68
2021/05/12 07:22:37;;;;;;;;;;;;;;;20.58;55.00;100877.41;5145504;27;1126;-68
2021/05/12 07:25:22;;;;;;;;;;;;;;;20.54;54.22;100869.78;5116176;27;1901;-69
2021/05/12 07:28:07;;;;;;;;;;;;;;;20.49;54.83;100866.53;5137151;27;1129;-69
2021/05/12 07:30:53;;;;;;;;;;;;;;;20.49;54.98;100869.19;5132614;27;1464;-69
2021/05/12 07:33:57;;;;;;;;;;;;;;;20.50;54.93;100860.31;5130625;27;921;-68
2021/05/12 07:36:42;;;;;;;;;;;;;;;20.46;54.54;100850.84;5142318;27;1560;-67
2021/05/12 07:39:29;;;;;;;;;;;;;;;20.69;55.26;100845.00;5137125;27;1544;-69
2021/05/12 07:42:17;;;;;;;;;;;;;;;20.62;53.93;100833.94;5136300;27;643;-66
2021/05/12 07:45:03;;;;;;;;;;;;;;;20.52;53.71;100826.66;5145452;27;1893;-67
2021/05/12 07:47:48;;;;;;;;;;;;;;;20.51;52.61;100819.69;5139788;27;1436;-68
2021/05/12 07:50:35;;;;;;;;;;;;;;;20.49;52.36;100816.28;5130231;27;1353;-67
2021/05/12 07:53:21;;;;;;;;;;;;;;;20.50;52.70;100802.97;5134496;27;1066;-67
2021/05/12 07:56:06;;;;;;;;;;;;;;;20.52;52.36;100802.84;5135939;27;1315;-68
2021/05/12 07:58:52;;;;;;;;;;;;;;;20.51;52.38;100788.78;5151479;27;1122;-69
2021/05/12 08:01:44;;;;;;;;;;;;;;;20.51;52.74;100785.28;5135564;27;1283;-68
2021/05/12 08:04:30;;;;;;;;;;;;;;;20.47;52.10;100771.41;5150644;27;1602;-68
2021/05/12 08:07:16;;;;;;;;;;;;;;;20.52;52.92;100769.31;5130939;27;709;-66
2021/05/12 08:10:01;;;;;;;;;;;;;;;20.65;54.55;100769.38;5130337;27;1318;-68
2021/05/12 08:12:47;;;;;;;;;;;;;;;20.60;52.48;100767.03;5130712;27;634;-66
2021/05/12 08:15:32;;;;;;;;;;;;;;;20.66;53.98;100771.06;5130304;27;1275;-69
2021/05/12 08:18:18;;;;;;;;;;;;;;;20.61;52.56;100778.44;5114842;27;663;-67
2021/05/12 08:21:05;;;;;;;;;;;;;;;20.58;52.39;100782.13;5130117;27;1470;-68
2021/05/12 08:23:51;;;;;;;;;;;;;;;20.67;53.99;100784.19;5129375;27;1045;-68
2021/05/12 08:26:36;;;;;;;;;;;;;;;20.82;55.54;100789.47;5114587;27;1967;-65
2021/05/12 08:29:22;;;;;;;;;;;;;;;20.81;56.14;100791.25;5145434;27;1334;-67
2021/05/12 08:32:10;;;;;;;;;;;;;;;20.83;56.44;100794.66;5137507;27;1314;-68
2021/05/12 08:34:56;;;;;;;;;;;;;;;20.84;57.13;100801.66;5129787;27;1294;-64
2021/05/12 08:37:41;;;;;;;;;;;;;;;20.82;57.27;100798.28;5129624;27;659;-65
2021/05/12 08:40:27;;;;;;;;;;;;;;;20.76;56.55;100789.88;5129049;27;1501;-66
2021/05/12 08:43:13;;;;;;;;;;;;;;;20.75;56.30;100791.66;5128912;27;1541;-67
2021/05/12 08:45:59;;;;;;;;;;;;;;;20.69;56.24;100781.47;5148625;27;1957;-67
2021/05/12 08:48:45;;;;;;;;;;;;;;;20.73;56.30;100781.16;5148121;27;1462;-66
2021/05/12 08:51:31;;;;;;;;;;;;;;;20.73;56.29;100780.34;5149944;27;1291;-66
2021/05/12 08:54:17;;;;;;;;;;;;;;;20.73;56.40;100769.75;5133661;27;1071;-66
2021/05/12 08:57:03;;;;;;;;;;;;;;;20.73;56.32;100766.25;5149536;27;1321;-66
2021/05/12 08:59:51;;;;;;;;;;;;;;;20.72;56.45;100773.31;5134355;27;1173;-67
2021/05/12 09:02:36;;;;;;;;;;;;;;;20.73;56.38;100770.56;5136427;27;691;-65
2021/05/12 09:05:22;;;;;;;;;;;;;;;20.73;56.53;100760.94;5151326;27;1906;-65
2021/05/12 09:08:07;;;;;;;;;;;;;;;20.72;56.50;100744.22;5135918;27;726;-66
2021/05/12 09:10:53;;;;;;;;;;;;;;;20.71;56.54;100750.44;5151474;27;1305;-66
2021/05/12 09:13:39;;;;;;;;;;;;;;;20.71;56.91;100753.94;5151224;27;654;-66
2021/05/12 09:16:24;;;;;;;;;;;;;;;20.73;56.52;100761.81;5135298;27;1219;-66
2021/05/12 09:19:13;;;;;;;;;;;;;;;20.73;56.66;100748.56;5151090;27;1155;-66
2021/05/12 09:22:00;;;;;;;;;;;;;;;20.73;56.71;100748.56;5134950;27;1268;-65
2021/05/12 09:24:47;;;;;;;;;;;;;;;20.73;56.65;100740.63;5150972;27;1058;-65
2021/05/12 09:27:33;;;;;;;;;;;;;;;20.73;56.65;100750.34;5150360;27;663;-65
2021/05/12 09:30:22;;;;;;;;;;;;;;;20.73;56.86;100751.22;5150525;27;1337;-66
2021/05/12 09:33:08;;;;;;;;;;;;;;;20.74;57.00;100737.00;5150965;27;635;-66
2021/05/12 09:35:54;;;;;;;;;;;;;;;20.72;56.83;100720.38;5151087;27;1260;-66
2021/05/12 09:38:51;;;;;;;;;;;;;;;20.72;57.02;100736.28;5134898;27;616;-66
2021/05/12 09:41:37;;;;;;;;;;;;;;;20.74;56.83;100734.34;5150358;27;1338;-64
2021/05/12 09:44:28;;;;;;;;;;;;;;;20.73;56.89;100718.59;5150457;27;1078;-65
2021/05/12 09:47:29;;;;;;;;;;;;;;;20.71;56.84;100711.59;5149796;27;1901;-66
2021/05/12 09:50:16;;;;;;;;;;;;;;;20.71;57.00;100706.28;5150515;27;1298;-65
2021/05/12 09:53:03;;;;;;;;;;;;;;;20.73;56.88;100708.00;5150245;27;662;-65
2021/05/12 09:55:50;;;;;;;;;;;;;;;20.71;57.08;100693.06;5150977;27;1317;-65
2021/05/12 09:58:35;;;;;;;;;;;;;;;20.74;57.58;100694.66;5144202;27;1556;-66
2021/05/12 10:01:36;;;;;;;;;;;;;;;20.78;57.35;100701.47;5138888;27;1652;-67
2021/05/12 10:04:23;;;;;;;;;;;;;;;20.77;57.13;100685.66;5121663;27;1695;-67
2021/05/12 10:07:16;;;;;;;;;;;;;;;20.78;57.16;100693.50;5112931;28;1906;-67
2021/05/12 10:10:01;;;;;;;;;;;;;;;20.79;57.20;100665.25;5128514;28;1342;-67
2021/05/12 10:12:47;;;;;;;;;;;;;;;20.79;57.17;100687.28;5112905;28;671;-67
2021/05/12 10:15:32;;;;;;;;;;;;;;;20.81;57.90;100669.47;5128079;27;1239;-66
2021/05/12 10:18:18;;;;;;;;;;;;;;;20.82;57.31;100665.91;5128085;27;785;-66
2021/05/12 10:21:05;;;;;;;;;;;;;;;20.83;57.45;100664.06;5123376;27;1234;-66
2021/05/12 10:23:51;;;;;;;;;;;;;;;20.83;57.65;100654.34;5131040;27;1143;-66
2021/05/12 10:26:36;;;;;;;;;;;;;;;20.84;57.55;100653.41;5127201;27;1901;-66
2021/05/12 10:29:22;;;;;;;;;;;;;;;20.85;57.34;100657.75;5149091;27;1088;-66
2021/05/12 10:32:15;;;;;;;;;;;;;;;20.85;57.42;100643.66;5152723;27;1322;-66
2021/05/12 10:35:03;;;;;;;;;;;;;;;20.85;57.60;100644.50;5133727;27;1682;-66
2021/05/12 10:37:51;;;;;;;;;;;;;;;20.89;58.00;100624.78;5137144;27;1685;-66
2021/05/12 10:40:41;;;;;;;;;;;;;;;20.86;58.01;100613.56;5144913;27;1326;-67
2021/05/12 10:43:36;;;;;;;;;;;;;;;20.85;57.72;100612.75;5131095;27;643;-67
2021/05/12 10:46:28;;;;;;;;;;;;;;;20.84;57.87;100616.31;5130512;27;1984;-66
2021/05/12 10:49:21;;;;;;;;;;;;;;;20.88;58.20;100601.09;5130548;27;1718;-66
2021/05/12 10:52:07;;;;;;;;;;;;;;;20.91;58.41;100601.72;5110066;28;1454;-68
2021/05/12 10:54:53;;;;;;;;;;;;;;;20.89;57.77;100593.03;5110507;28;1212;-66
2021/05/12 10:57:46;;;;;;;;;;;;;;;20.90;58.04;100584.13;5094908;28;1696;-66
2021/05/12 11:00:51;;;;;;;;;;;;;;;20.89;58.36;100579.78;5094615;28;1318;-65
2021/05/12 11:03:49;;;;;;;;;;;;;;;20.91;58.00;100580.56;5094506;28;664;-66
2021/05/12 11:06:35;;;;;;;;;;;;;;;20.92;58.34;100574.28;5110363;28;1906;-68
2021/05/12 11:09:41;;;;;;;;;;;;;;;20.94;58.36;100575.03;5110706;28;953;-66
2021/05/12 11:12:34;;;;;;;;;;;;;;;20.94;58.42;100569.75;5110024;28;758;-68
2021/05/12 11:15:19;;;;;;;;;;;;;;;20.94;58.48;100553.88;5098634;27;1299;-66
2021/05/12 11:18:04;;;;;;;;;;;;;;;20.97;58.92;100548.34;5130559;27;695;-66
2021/05/12 11:21:09;;;;;;;;;;;;;;;20.97;58.92;100558.94;5130744;27;1287;-67
2021/05/12 11:24:05;;;;;;;;;;;;;;;20.98;58.99;100544.72;5110647;27;1627;-67
2021/05/12 11:27:14;;;;;;;;;;;;;;;20.98;59.12;100536.78;5127631;27;1986;-67
2021/05/12 11:32:51;;;;;;;;;;;;;;;21.00;58.82;100519.00;5130470;27;619;-68
2021/05/12 11:35:44;;;;;;;;;;;;;;;21.01;59.00;100514.53;5124011;27;1316;-67
2021/05/12 11:38:51;;;;;;;;;;;;;;;21.01;59.17;100517.19;5098449;27;1108;-67
2021/05/12 11:41:37;;;;;;;;;;;;;;;21.08;59.07;100519.34;5108647;28;1204;-65
2021/05/12 11:44:23;;;;;;;;;;;;;;;21.13;58.96;100522.50;5109631;28;1045;-65
2021/05/12 11:47:08;;;;;;;;;;;;;;;21.09;59.24;100521.06;5111482;27;1910;-64
2021/05/12 11:49:53;;;;;;;;;;;;;;;21.04;58.85;100522.28;5138098;27;1318;-65
2021/05/12 11:52:38;;;;;;;;;;;;;;;21.01;58.93;100488.06;5134402;27;730;-65
2021/05/12 11:55:25;;;;;;;;;;;;;;;21.02;58.71;100497.72;5130151;27;1341;-66
2021/05/12 11:58:21;;;;;;;;;;;;;;;21.03;58.60;100494.97;5129604;27;722;-66
2021/05/12 12:01:08;;;;;;;;;;;;;;;21.04;58.06;100487.84;5129518;27;1224;-66
2021/05/12 12:07:09;;;;;;;;;;;;;;;21.53;55.65;100482.56;5132185;27;2009;-68
2021/05/12 12:10:05;;;;;;;;;;;;;;;21.53;55.15;100471.97;5144834;27;1655;-67
2021/05/12 12:12:56;;;;;;;;;;;;;;;21.49;55.40;100470.53;5141880;27;1532;-69
2021/05/12 12:15:46;;;;;;;;;;;;;;;21.43;54.08;100477.09;5114783;27;1613;-71
2021/05/12 12:18:33;;;;;;;;;;;;;;;21.34;51.56;100461.03;5140909;27;1472;-73
2021/05/12 12:21:31;;;;;;;;;;;;;;;21.36;52.42;100472.34;5129310;27;1361;-73
2021/05/12 12:24:19;;;;;;;;;;;;;;;21.41;53.75;100467.56;5129330;27;1111;-69
2021/05/12 12:27:05;;;;;;;;;;;;;;;21.39;53.88;100448.28;5113091;27;1976;-69
2021/05/12 12:29:50;;;;;;;;;;;;;;;21.40;54.41;100452.63;5130184;27;1299;-63
2021/05/12 12:32:36;;;;;;;;;;;;;;;21.37;55.31;100474.88;5129695;27;995;-65
2021/05/12 12:35:22;;;;;;;;;;;;;;;21.43;56.22;100469.13;5129264;27;1239;-69
2021/05/12 12:38:11;;;;;;;;;;;;;;;21.51;57.21;100465.94;5113761;27;655;-69
2021/05/12 12:40:56;;;;;;;;;;;;;;;21.55;57.48;100467.44;5114131;27;1358;-69
2021/05/12 12:43:42;;;;;;;;;;;;;;;21.48;57.36;100448.47;5129488;27;1524;-71
2021/05/12 12:46:27;;;;;;;;;;;;;;;21.47;58.27;100451.22;5129802;27;1883;-67
2021/05/12 12:49:13;;;;;;;;;;;;;;;21.42;57.27;100454.22;5138611;27;1414;-65
2021/05/12 12:52:07;;;;;;;;;;;;;;;21.42;57.71;100433.00;5128575;27;1295;-67
2021/05/12 12:55:04;;;;;;;;;;;;;;;21.45;58.42;100432.78;5113509;27;1362;-67
2021/05/12 12:58:00;;;;;;;;;;;;;;;21.46;58.31;100434.47;5130750;27;1351;-68
2021/05/12 13:00:46;;;;;;;;;;;;;;;21.45;57.96;100432.78;5113037;27;1368;-69
2021/05/12 13:03:34;;;;;;;;;;;;;;;21.46;58.66;100420.41;5128681;27;956;-66
2021/05/12 13:06:28;;;;;;;;;;;;;;;21.48;58.49;100421.97;5112654;27;1909;-66
2021/05/12 13:09:23;;;;;;;;;;;;;;;21.49;58.73;100409.56;5127987;27;1027;-66
2021/05/12 13:12:08;;;;;;;;;;;;;;;21.47;58.58;100414.13;5127714;27;1306;-66
2021/05/12 13:14:53;;;;;;;;;;;;;;;21.46;58.94;100399.19;5112512;27;1336;-65
2021/05/12 13:17:50;;;;;;;;;;;;;;;21.46;58.58;100415.09;5128058;27;596;-67
2021/05/12 13:20:40;;;;;;;;;;;;;;;21.47;58.96;100416.75;5127858;27;1318;-67
2021/05/12 13:23:30;;;;;;;;;;;;;;;21.45;58.55;100401.00;5126640;27;1019;-67
2021/05/12 13:26:15;;;;;;;;;;;;;;;21.48;59.30;100405.22;5127755;27;1898;-67
2021/05/12 13:29:11;;;;;;;;;;;;;;;21.47;59.23;100404.38;5112987;27;1057;-68
2021/05/12 13:31:56;;;;;;;;;;;;;;;21.46;58.81;100401.84;5127718;27;1385;-68
2021/05/12 13:34:42;;;;;;;;;;;;;;;21.47;58.96;100401.72;5128966;27;1808;-70
2021/05/12 13:37:28;;;;;;;;;;;;;;;21.47;59.12;100383.16;5131875;27;943;-69
2021/05/12 13:40:14;;;;;;;;;;;;;;;21.49;58.90;100388.38;5128328;27;1219;-66
2021/05/12 13:42:59;;;;;;;;;;;;;;;21.51;59.07;100383.78;5127422;27;1103;-68
2021/05/12 13:45:45;;;;;;;;;;;;;;;21.47;59.28;100383.16;5127757;27;1324;-68
2021/05/12 13:48:31;;;;;;;;;;;;;;;21.47;59.18;100369.91;5129833;27;1435;-70
2021/05/12 13:51:18;;;;;;;;;;;;;;;21.46;59.44;100354.16;5141946;27;1512;-70
2021/05/12 13:54:54;;;;;;;;;;;;;;;21.45;58.99;100352.44;5134042;27;1286;-68
2021/05/12 13:57:18;;;;;;;;;;;;;;;21.49;59.50;100364.53;5127847;27;1455;-70
2021/05/12 14:02:56;;;;;;;;;;;;;;;21.46;59.15;100375.34;5148070;27;655;-67
2021/05/12 14:05:42;;;;;;;;;;;;;;;21.45;59.14;100371.00;5148705;27;1287;-68
2021/05/12 14:08:28;;;;;;;;;;;;;;;21.44;59.30;100375.44;5138562;27;1909;-67
2021/05/12 14:11:13;;;;;;;;;;;;;;;21.44;59.43;100378.09;5127540;28;1306;-65
2021/05/12 14:14:08;;;;;;;;;;;;;;;21.44;59.15;100379.88;5127286;28;940;-67
2021/05/12 14:19:43;;;;;;;;;;;;;;;21.44;59.13;100361.34;5127374;28;921;-66
2021/05/12 14:22:28;;;;;;;;;;;;;;;21.44;59.21;100375.44;5126245;28;702;-67
2021/05/12 14:25:14;;;;;;;;;;;;;;;21.45;59.59;100389.53;5134361;27;1489;-68
2021/05/12 14:28:01;;;;;;;;;;;;;;;21.44;59.48;100398.44;5131993;27;1965;-65
2021/05/12 14:30:47;;;;;;;;;;;;;;;21.44;59.18;100393.13;5147185;27;1255;-67
2021/05/12 14:33:33;;;;;;;;;;;;;;;21.44;59.54;100398.44;5148287;27;627;-67
2021/05/12 14:36:19;;;;;;;;;;;;;;;21.46;59.49;100396.53;5147740;27;1287;-68
2021/05/12 14:39:07;;;;;;;;;;;;;;;21.47;59.72;100406.16;5148152;27;1097;-67
2021/05/12 14:41:53;;;;;;;;;;;;;;;21.46;59.50;100392.06;5148211;27;1267;-67
2021/05/12 14:44:42;;;;;;;;;;;;;;;21.46;59.52;100393.91;5132234;27;1124;-69
2021/05/12 14:47:27;;;;;;;;;;;;;;;21.47;59.48;100388.47;5126829;27;1907;-67